< < Back
Terminal Aerodrome Forecast


Current Version              Previous Versions:   1  2  3  4  5  6  7  8  9  

Terminal Aerodrome Forecast

354
FTUS44 KOHX 032320
TAFBNA
TAF
KBNA 032320Z 0400/0424 28004KT P6SM SCT250
      TEMPO 0409/0412 5SM BR
     FM041600 29007KT P6SM SCT050=

Latest METAR

238
SAUS70 KWBC 050200 RRC
MTRBNA
METAR KBNA 050153Z 00000KT 10SM BKN250 31/19 A3001 RMK AO2 SLP153
T03060194


USA.gov is the U.S. government's official web portal to all federal, state and local government web resources and services.